createdAt,value
2023-02-13T00:00:41.566Z,69.81
2023-02-13T00:03:15.326Z,69.79
2023-02-13T00:05:48.571Z,69.81
2023-02-13T00:08:21.701Z,69.74
2023-02-13T00:10:55.661Z,69.66
2023-02-13T00:13:29.435Z,69.57
2023-02-13T00:16:04.636Z,69.47
2023-02-13T00:18:39.831Z,69.35
2023-02-13T00:21:15.179Z,69.32
2023-02-13T00:23:48.469Z,69.24
2023-02-13T00:26:21.806Z,69.14
2023-02-13T00:28:55.313Z,69.20
2023-02-13T00:31:30.135Z,69.20
2023-02-13T00:34:03.311Z,69.17
2023-02-13T00:36:36.585Z,69.09
2023-02-13T00:39:10.304Z,69.04
2023-02-13T00:41:43.145Z,69.04
2023-02-13T00:44:16.700Z,68.98
2023-02-13T00:46:50.082Z,68.83
2023-02-13T00:49:23.247Z,68.73
2023-02-13T00:51:56.485Z,68.73
2023-02-13T00:54:29.700Z,68.80
2023-02-13T00:57:03.028Z,68.86
2023-02-13T00:59:36.159Z,68.85
2023-02-13T01:02:09.387Z,68.80
2023-02-13T01:04:42.533Z,68.76
2023-02-13T01:07:16.716Z,68.75
2023-02-13T01:09:49.864Z,68.74
2023-02-13T01:12:23.073Z,68.76
2023-02-13T01:14:56.359Z,68.86
2023-02-13T01:17:29.695Z,68.87
2023-02-13T01:20:03.125Z,68.88
2023-02-13T01:22:36.082Z,68.84
2023-02-13T01:25:10.558Z,68.77
2023-02-13T01:27:43.677Z,68.69
2023-02-13T01:30:18.738Z,68.70
2023-02-13T01:32:51.845Z,68.80
2023-02-13T01:35:24.843Z,68.87
2023-02-13T01:37:58.985Z,68.89
2023-02-13T01:40:32.245Z,68.85
2023-02-13T01:43:09.371Z,68.77
2023-02-13T01:45:43.695Z,68.63
2023-02-13T01:48:19.866Z,68.49
2023-02-13T01:50:56.409Z,68.37
2023-02-13T01:53:33.122Z,68.34
2023-02-13T01:56:09.267Z,68.39
2023-02-13T01:58:45.380Z,68.41
2023-02-13T02:01:18.846Z,68.40
2023-02-13T02:03:56.676Z,68.44
2023-02-13T02:06:32.675Z,68.57
2023-02-13T02:09:09.007Z,68.70
2023-02-13T02:11:46.143Z,68.71
2023-02-13T02:14:20.206Z,68.64
2023-02-13T02:16:54.061Z,68.66
2023-02-13T02:19:33.078Z,68.67
2023-02-13T02:22:32.744Z,68.66
2023-02-13T02:25:35.774Z,68.66
2023-02-13T02:32:01.557Z,68.80
2023-02-13T02:34:39.198Z,68.93
2023-02-13T02:37:15.441Z,69.09
2023-02-13T02:39:53.219Z,69.18
2023-02-13T02:42:31.479Z,69.29
2023-02-13T02:45:07.984Z,69.38
2023-02-13T02:48:02.864Z,69.46
2023-02-13T02:50:42.543Z,69.53
2023-02-13T02:53:22.124Z,69.59
2023-02-13T02:55:58.422Z,69.66
2023-02-13T02:58:52.375Z,69.72
2023-02-13T03:01:47.020Z,69.80
2023-02-13T03:04:40.994Z,69.84
2023-02-13T03:07:16.688Z,69.87
2023-02-13T03:10:10.845Z,69.95
2023-02-13T03:13:05.012Z,69.97
2023-02-13T03:15:41.868Z,69.97
2023-02-13T03:18:32.574Z,69.94
2023-02-13T03:21:26.182Z,70.00
2023-02-13T03:24:02.204Z,70.07
2023-02-13T03:26:50.802Z,70.19
2023-02-13T03:29:51.006Z,70.25
2023-02-13T03:32:28.083Z,70.30
2023-02-13T03:35:22.223Z,70.35
2023-02-13T03:37:58.306Z,70.35
2023-02-13T03:40:34.895Z,70.32
2023-02-13T03:43:11.395Z,70.31
2023-02-13T03:45:57.522Z,70.41
2023-02-13T03:48:51.055Z,70.48
2023-02-13T03:51:27.618Z,70.47
2023-02-13T03:54:03.649Z,70.43
2023-02-13T03:56:56.827Z,70.41
2023-02-13T03:59:33.411Z,70.35
2023-02-13T04:02:10.443Z,70.29
2023-02-13T04:04:47.733Z,70.30
2023-02-13T04:07:32.193Z,70.22
2023-02-13T04:10:08.545Z,70.12
2023-02-13T04:12:45.417Z,70.03
2023-02-13T04:15:21.450Z,69.97
2023-02-13T04:17:58.110Z,69.99
2023-02-13T04:20:32.878Z,70.04
2023-02-13T04:23:09.742Z,70.05
2023-02-13T04:25:45.666Z,70.12
2023-02-13T04:28:19.306Z,70.22
2023-02-13T04:30:52.632Z,70.29
2023-02-13T04:33:25.985Z,70.32
2023-02-13T04:35:59.190Z,70.38
2023-02-13T04:38:32.433Z,70.49
2023-02-13T04:41:05.644Z,70.70
2023-02-13T04:43:38.907Z,70.83
2023-02-13T04:46:12.154Z,70.92
2023-02-13T04:48:45.393Z,71.06
2023-02-13T04:51:18.551Z,71.18
2023-02-13T04:53:51.357Z,71.21
2023-02-13T04:56:24.529Z,71.21
2023-02-13T04:58:58.439Z,71.26
2023-02-13T05:01:32.043Z,71.35
2023-02-13T05:04:05.916Z,71.33
2023-02-13T05:06:39.325Z,71.26
2023-02-13T05:09:13.387Z,71.21
2023-02-13T05:11:46.756Z,71.25
2023-02-13T05:14:20.187Z,71.30
2023-02-13T05:16:53.349Z,71.40
2023-02-13T05:19:26.741Z,71.52
2023-02-13T05:22:17.399Z,71.63
2023-02-13T05:24:50.525Z,71.69
2023-02-13T05:27:23.812Z,71.72
2023-02-13T05:29:56.949Z,71.79
2023-02-13T05:32:30.198Z,71.83
2023-02-13T05:35:04.653Z,71.95
2023-02-13T05:37:37.982Z,72.00
2023-02-13T05:40:14.172Z,72.04
2023-02-13T05:42:47.225Z,72.08
2023-02-13T05:45:20.620Z,72.12
2023-02-13T05:47:53.819Z,72.16
2023-02-13T05:50:27.277Z,72.17
2023-02-13T05:53:01.204Z,72.22
2023-02-13T05:55:34.553Z,72.20
2023-02-13T05:58:09.469Z,72.16
2023-02-13T06:00:42.624Z,72.10
2023-02-13T06:03:16.029Z,72.18
2023-02-13T06:05:49.369Z,72.21
2023-02-13T06:08:23.123Z,72.23
2023-02-13T06:10:56.526Z,72.31
2023-02-13T06:13:29.838Z,72.33
2023-02-13T06:16:02.986Z,72.26
2023-02-13T06:18:36.796Z,72.23
2023-02-13T06:21:10.794Z,72.18
2023-02-13T06:23:44.032Z,72.16
2023-02-13T06:26:19.677Z,72.06
2023-02-13T06:28:53.118Z,72.02
2023-02-13T06:31:27.006Z,72.00
2023-02-13T06:34:00.319Z,72.10
2023-02-13T06:36:33.379Z,72.10
2023-02-13T06:39:07.255Z,72.01
2023-02-13T06:41:40.733Z,71.89
2023-02-13T06:44:13.893Z,71.89
2023-02-13T06:46:47.643Z,71.88
2023-02-13T06:49:21.011Z,71.96
2023-02-13T06:51:54.530Z,71.96
2023-02-13T06:54:44.657Z,71.90
2023-02-13T06:57:03.186Z,71.80
2023-02-13T06:59:36.651Z,71.71
2023-02-13T07:02:11.421Z,71.77
2023-02-13T07:04:46.538Z,71.68
2023-02-13T07:07:20.247Z,71.61
2023-02-13T07:09:53.286Z,71.81
2023-02-13T07:12:26.895Z,71.73
2023-02-13T07:15:00.301Z,71.69
2023-02-13T07:17:35.210Z,71.65
2023-02-13T07:20:10.937Z,71.61
2023-02-13T07:22:44.059Z,71.79
2023-02-13T07:25:18.831Z,71.71
2023-02-13T07:27:52.388Z,71.65
2023-02-13T07:30:25.613Z,71.60
2023-02-13T07:33:02.543Z,71.52
2023-02-13T07:35:37.901Z,71.55
2023-02-13T07:38:11.028Z,71.39
2023-02-13T07:40:44.325Z,71.44
2023-02-13T07:43:17.657Z,71.26
2023-02-13T07:45:52.713Z,71.05
2023-02-13T07:48:27.383Z,71.12
2023-02-13T07:51:04.383Z,70.98
2023-02-13T07:53:37.860Z,71.04
2023-02-13T07:56:12.724Z,70.99
2023-02-13T07:58:46.404Z,70.86
2023-02-13T08:01:20.459Z,70.98
2023-02-13T08:03:53.954Z,71.14
2023-02-13T08:06:27.742Z,71.02
2023-02-13T08:09:18.469Z,71.17
2023-02-13T08:11:55.377Z,71.28
2023-02-13T08:14:29.751Z,71.21
2023-02-13T08:17:03.435Z,71.24
2023-02-13T08:19:36.672Z,71.22
2023-02-13T08:22:10.563Z,71.17
2023-02-13T08:24:43.833Z,71.28
2023-02-13T08:27:17.915Z,71.30
2023-02-13T08:29:52.602Z,71.35
2023-02-13T08:32:26.555Z,71.34
2023-02-13T08:35:00.022Z,71.44
2023-02-13T08:37:34.581Z,71.51
2023-02-13T08:40:10.976Z,71.32
2023-02-13T08:42:44.768Z,71.17
2023-02-13T08:45:18.447Z,71.03
2023-02-13T08:47:51.732Z,71.31
2023-02-13T08:50:25.493Z,71.50
2023-02-13T08:52:59.148Z,71.44
2023-02-13T08:55:32.358Z,71.44
2023-02-13T08:58:06.495Z,71.57
2023-02-13T09:00:39.978Z,71.67
2023-02-13T09:03:13.568Z,71.71
2023-02-13T09:05:48.177Z,71.81
2023-02-13T09:08:21.738Z,72.00
2023-02-13T09:11:01.099Z,72.08
2023-02-13T09:13:37.336Z,72.14
2023-02-13T09:16:12.074Z,72.18
2023-02-13T09:18:45.240Z,72.27
2023-02-13T09:21:19.385Z,72.31
2023-02-13T09:23:53.311Z,72.35
2023-02-13T09:26:27.083Z,72.11
2023-02-13T09:29:00.626Z,71.60
2023-02-13T09:31:34.303Z,71.64
2023-02-13T09:34:07.732Z,71.73
2023-02-13T09:36:41.172Z,71.61
2023-02-13T09:39:14.813Z,71.54
2023-02-13T09:44:39.133Z,71.12
2023-02-13T09:47:17.458Z,71.23
2023-02-13T09:49:53.881Z,71.17
2023-02-13T09:52:29.766Z,70.72
2023-02-13T09:55:06.282Z,70.66
2023-02-13T09:57:42.370Z,70.75
2023-02-13T10:00:20.286Z,70.79
2023-02-13T10:03:22.110Z,70.88
2023-02-13T10:06:00.867Z,71.00
2023-02-13T10:08:41.084Z,71.20
2023-02-13T10:11:25.428Z,71.50
2023-02-13T10:14:05.720Z,71.65
2023-02-13T10:16:42.011Z,71.73
2023-02-13T10:19:20.990Z,71.75
2023-02-13T10:21:57.581Z,71.94
2023-02-13T10:24:35.449Z,71.79
2023-02-13T10:27:13.383Z,71.77
2023-02-13T10:30:09.817Z,71.93
2023-02-13T10:32:51.003Z,71.76
2023-02-13T10:35:28.282Z,71.61
2023-02-13T10:38:04.207Z,71.65
2023-02-13T10:40:41.348Z,71.42
2023-02-13T10:43:17.968Z,71.10
2023-02-13T10:46:00.893Z,70.85
2023-02-13T10:49:06.824Z,70.98
2023-02-13T10:54:30.729Z,71.07
2023-02-13T10:57:09.371Z,70.81
2023-02-13T11:00:02.001Z,70.92
2023-02-13T11:02:37.177Z,70.98
2023-02-13T11:05:17.511Z,71.27
2023-02-13T11:07:51.563Z,71.53
2023-02-13T11:10:27.354Z,71.60
2023-02-13T11:13:03.637Z,71.71
2023-02-13T11:15:37.397Z,71.50
2023-02-13T11:18:18.652Z,71.05
2023-02-13T11:21:00.131Z,70.85
2023-02-13T11:23:45.670Z,71.37
2023-02-13T11:26:25.304Z,71.36
2023-02-13T11:29:02.075Z,71.60
2023-02-13T11:31:37.209Z,71.80
2023-02-13T11:34:27.273Z,71.90
2023-02-13T11:37:19.054Z,72.06
2023-02-13T11:39:54.450Z,72.25
2023-02-13T11:42:33.837Z,72.29
2023-02-13T11:45:09.880Z,72.59
2023-02-13T11:47:44.539Z,72.70
2023-02-13T11:50:27.375Z,72.75
2023-02-13T11:53:03.440Z,72.80
2023-02-13T11:55:38.578Z,72.74
2023-02-13T11:58:26.272Z,72.64
2023-02-13T12:01:05.168Z,72.38
2023-02-13T12:03:39.349Z,72.31
2023-02-13T12:06:18.610Z,72.03
2023-02-13T12:08:52.949Z,72.10
2023-02-13T12:11:29.129Z,72.28
2023-02-13T12:14:04.430Z,72.39
2023-02-13T12:16:41.283Z,72.45
2023-02-13T12:19:17.880Z,72.49
2023-02-13T12:21:59.383Z,72.57
2023-02-13T12:24:41.726Z,72.60
2023-02-13T12:27:19.451Z,72.74
2023-02-13T12:30:04.017Z,72.77
2023-02-13T12:32:43.061Z,72.73
2023-02-13T12:35:34.130Z,72.19
2023-02-13T12:38:11.586Z,72.38
2023-02-13T12:41:16.049Z,72.49
2023-02-13T12:44:21.359Z,72.48
2023-02-13T12:47:00.607Z,72.51
2023-02-13T12:53:03.394Z,72.51
2023-02-13T12:55:47.688Z,72.46
2023-02-13T12:58:44.558Z,72.51
2023-02-13T13:01:23.830Z,72.61
2023-02-13T13:04:04.279Z,72.51
2023-02-13T13:06:57.473Z,72.34
2023-02-13T13:09:43.245Z,72.51
2023-02-13T13:12:35.127Z,72.67
2023-02-13T13:15:12.618Z,72.68
2023-02-13T13:17:54.101Z,72.62
2023-02-13T13:20:43.810Z,72.65
2023-02-13T13:23:20.341Z,72.65
2023-02-13T13:26:00.529Z,72.60
2023-02-13T13:28:37.147Z,72.68
2023-02-13T13:31:12.028Z,72.57
2023-02-13T13:33:47.534Z,72.73
2023-02-13T13:36:27.696Z,72.66
2023-02-13T13:39:05.446Z,72.91
2023-02-13T13:41:42.801Z,72.94
2023-02-13T13:44:26.729Z,72.93
2023-02-13T13:47:03.326Z,73.12
2023-02-13T13:49:44.638Z,73.24
2023-02-13T13:52:27.364Z,73.19
2023-02-13T13:55:02.900Z,73.33
2023-02-13T13:58:01.682Z,73.48
2023-02-13T14:00:36.858Z,73.48
2023-02-13T14:03:26.455Z,73.72
2023-02-13T14:06:19.506Z,73.97
2023-02-13T14:09:15.657Z,74.20
2023-02-13T14:11:49.497Z,74.35
2023-02-13T14:14:59.921Z,74.51
2023-02-13T14:17:54.658Z,74.53
2023-02-13T14:20:39.615Z,74.62
2023-02-13T14:23:21.452Z,74.82
2023-02-13T14:26:12.621Z,75.06
2023-02-13T14:28:48.254Z,75.24
2023-02-13T14:31:24.588Z,75.23
2023-02-13T14:34:01.283Z,75.29
2023-02-13T14:36:36.802Z,75.43
2023-02-13T14:39:13.489Z,75.57
2023-02-13T14:42:01.095Z,75.66
2023-02-13T14:44:35.227Z,75.74
2023-02-13T14:47:14.994Z,75.71
2023-02-13T14:49:50.105Z,75.77
2023-02-13T14:52:27.828Z,75.86
2023-02-13T14:55:01.608Z,75.96
2023-02-13T14:57:39.320Z,75.91
2023-02-13T15:00:17.619Z,76.00
2023-02-13T15:02:54.314Z,76.11
2023-02-13T15:05:30.446Z,76.20
2023-02-13T15:08:09.032Z,76.26
2023-02-13T15:10:47.278Z,76.31
2023-02-13T15:13:23.596Z,76.28
2023-02-13T15:15:59.635Z,76.30
2023-02-13T15:18:37.392Z,76.23
2023-02-13T15:21:15.521Z,76.35
2023-02-13T15:23:52.350Z,76.45
2023-02-13T15:26:29.080Z,76.52
2023-02-13T15:29:05.837Z,76.61
2023-02-13T15:31:39.395Z,76.74
2023-02-13T15:34:25.143Z,76.78
2023-02-13T15:36:59.206Z,76.74
2023-02-13T15:39:33.533Z,76.78
2023-02-13T15:42:07.278Z,76.79
2023-02-13T15:44:41.945Z,76.80
2023-02-13T15:47:21.312Z,76.95
2023-02-13T15:49:55.266Z,77.00
2023-02-13T15:52:33.446Z,77.04
2023-02-13T15:55:08.141Z,77.20
2023-02-13T15:57:42.346Z,77.29
2023-02-13T16:00:21.517Z,77.41
2023-02-13T16:02:57.321Z,77.49
2023-02-13T16:05:39.868Z,77.62
2023-02-13T16:08:31.111Z,77.73
2023-02-13T16:14:21.871Z,77.89
2023-02-13T16:16:58.177Z,77.94
2023-02-13T16:19:38.875Z,77.96
2023-02-13T16:22:23.137Z,78.03
2023-02-13T16:24:59.022Z,78.11
2023-02-13T16:27:33.871Z,78.11
2023-02-13T16:30:10.942Z,78.10
2023-02-13T16:32:44.595Z,78.17
2023-02-13T16:35:31.216Z,78.24
2023-02-13T16:38:05.623Z,78.25
2023-02-13T16:40:42.221Z,78.22
2023-02-13T16:43:40.442Z,78.21
2023-02-13T16:46:36.377Z,78.26
2023-02-13T16:49:20.943Z,78.30
2023-02-13T16:52:00.750Z,78.37
2023-02-13T16:54:50.368Z,78.30
2023-02-13T16:57:31.028Z,78.34
2023-02-13T17:00:09.861Z,78.35
2023-02-13T17:02:43.489Z,78.32
2023-02-13T17:05:23.226Z,78.40
2023-02-13T17:07:58.054Z,78.47
2023-02-13T17:10:34.149Z,78.48
2023-02-13T17:13:13.306Z,78.48
2023-02-13T17:15:48.519Z,78.52
2023-02-13T17:18:22.243Z,78.56
2023-02-13T17:21:35.946Z,78.64
2023-02-13T17:24:13.916Z,78.71
2023-02-13T17:26:47.635Z,78.72
2023-02-13T17:29:20.939Z,78.74
2023-02-13T17:32:07.976Z,78.74
2023-02-13T17:34:52.997Z,78.83
2023-02-13T17:37:28.558Z,78.85
2023-02-13T17:40:02.430Z,78.91
2023-02-13T17:42:37.483Z,79.00
2023-02-13T17:45:14.372Z,79.04
2023-02-13T17:47:48.210Z,79.14
2023-02-13T17:50:22.706Z,79.25
2023-02-13T17:52:57.093Z,79.35
2023-02-13T17:55:32.544Z,79.39
2023-02-13T17:58:06.411Z,79.50
2023-02-13T18:00:40.170Z,79.54
2023-02-13T18:03:14.681Z,79.58
2023-02-13T18:05:50.464Z,79.66
2023-02-13T18:08:24.179Z,79.71
2023-02-13T18:10:58.662Z,79.79
2023-02-13T18:13:32.667Z,79.80
2023-02-13T18:16:10.605Z,79.85
2023-02-13T18:18:44.231Z,79.93
2023-02-13T18:21:18.004Z,79.94
2023-02-13T18:23:54.630Z,79.96
2023-02-13T18:26:27.838Z,79.95
2023-02-13T18:29:01.285Z,79.99
2023-02-13T18:31:34.898Z,80.02
2023-02-13T18:34:08.505Z,80.05
2023-02-13T18:36:42.124Z,80.11
2023-02-13T18:39:16.011Z,80.17
2023-02-13T18:41:49.827Z,80.17
2023-02-13T18:44:28.441Z,80.19
2023-02-13T18:46:58.471Z,80.24
2023-02-13T18:49:31.995Z,80.34
2023-02-13T18:52:05.690Z,80.38
2023-02-13T18:54:39.688Z,80.39
2023-02-13T18:57:13.298Z,80.39
2023-02-13T18:59:46.666Z,80.42
2023-02-13T19:02:20.405Z,80.49
2023-02-13T19:04:53.757Z,80.54
2023-02-13T19:07:27.202Z,80.56
2023-02-13T19:10:00.666Z,80.61
2023-02-13T19:12:34.109Z,80.68
2023-02-13T19:15:08.219Z,80.72
2023-02-13T19:17:41.712Z,80.74
2023-02-13T19:20:17.024Z,80.78
2023-02-13T19:22:55.243Z,80.88
2023-02-13T19:25:28.577Z,80.94
2023-02-13T19:28:02.040Z,81.03
2023-02-13T19:30:35.551Z,81.07
2023-02-13T19:33:08.645Z,81.04
2023-02-13T19:35:42.835Z,81.08
2023-02-13T19:38:16.357Z,81.07
2023-02-13T19:40:49.595Z,81.19
2023-02-13T19:43:23.206Z,81.25
2023-02-13T19:45:58.558Z,81.26
2023-02-13T19:48:32.126Z,81.34
2023-02-13T19:51:10.227Z,81.38
2023-02-13T19:53:43.717Z,81.49
2023-02-13T19:56:17.535Z,81.48
2023-02-13T19:58:50.986Z,81.56
2023-02-13T20:01:26.136Z,81.68
2023-02-13T20:04:00.142Z,81.69
2023-02-13T20:06:36.820Z,81.68
2023-02-13T20:09:12.202Z,81.68
2023-02-13T20:11:46.211Z,81.58
2023-02-13T20:14:19.817Z,81.54
2023-02-13T20:16:53.019Z,81.54
2023-02-13T20:19:27.897Z,81.62
2023-02-13T20:22:01.870Z,81.62
2023-02-13T20:24:35.526Z,81.56
2023-02-13T20:27:10.568Z,81.55
2023-02-13T20:29:45.074Z,81.48
2023-02-13T20:32:18.534Z,81.54
2023-02-13T20:34:59.546Z,81.58
2023-02-13T20:37:27.381Z,81.48
2023-02-13T20:40:00.920Z,81.35
2023-02-13T20:42:38.540Z,81.44
2023-02-13T20:45:12.829Z,81.60
2023-02-13T20:47:47.353Z,81.60
2023-02-13T20:50:20.812Z,81.53
2023-02-13T20:52:54.338Z,81.48
2023-02-13T20:55:28.046Z,81.56
2023-02-13T20:58:01.588Z,81.62
2023-02-13T21:00:35.291Z,81.66
2023-02-13T21:03:09.057Z,81.65
2023-02-13T21:05:45.751Z,81.66
2023-02-13T21:08:19.244Z,81.77
2023-02-13T21:10:52.766Z,81.76
2023-02-13T21:13:26.152Z,81.67
2023-02-13T21:16:09.000Z,81.60
2023-02-13T21:18:43.137Z,81.49
2023-02-13T21:21:17.384Z,81.42
2023-02-13T21:23:52.444Z,81.29
2023-02-13T21:26:26.392Z,81.22
2023-02-13T21:29:00.471Z,81.21
2023-02-13T21:31:36.271Z,81.06
2023-02-13T21:34:12.184Z,81.06
2023-02-13T21:36:47.314Z,81.10
2023-02-13T21:39:20.689Z,81.08
2023-02-13T21:41:54.130Z,80.99
2023-02-13T21:44:27.990Z,80.96
2023-02-13T21:47:01.601Z,80.89
2023-02-13T21:49:35.955Z,80.89
2023-02-13T21:52:09.320Z,80.94
2023-02-13T21:54:43.019Z,81.06
2023-02-13T21:57:16.277Z,81.09
2023-02-13T21:59:49.761Z,81.11
2023-02-13T22:02:23.533Z,81.21
2023-02-13T22:04:57.107Z,81.20
2023-02-13T22:07:30.534Z,81.25
2023-02-13T22:10:04.012Z,81.38
2023-02-13T22:12:36.755Z,81.53
2023-02-13T22:15:11.269Z,81.64
2023-02-13T22:17:44.713Z,81.62
2023-02-13T22:20:19.008Z,81.54
2023-02-13T22:22:52.636Z,81.56
2023-02-13T22:25:26.094Z,81.69
2023-02-13T22:27:59.441Z,81.81
2023-02-13T22:30:33.098Z,81.80
2023-02-13T22:33:07.084Z,81.77
2023-02-13T22:35:41.396Z,81.70
2023-02-13T22:38:15.192Z,81.46
2023-02-13T22:40:48.483Z,81.48
2023-02-13T22:43:22.011Z,81.52
2023-02-13T22:45:55.582Z,81.48
2023-02-13T22:48:29.186Z,81.52
2023-02-13T22:51:06.089Z,81.56
2023-02-13T22:53:40.115Z,81.47
2023-02-13T22:56:14.191Z,81.40
2023-02-13T22:58:47.605Z,81.32
2023-02-13T23:01:22.739Z,81.22
2023-02-13T23:03:56.534Z,81.22
2023-02-13T23:06:30.212Z,81.17
2023-02-13T23:09:03.838Z,81.11
2023-02-13T23:11:54.780Z,81.03
2023-02-13T23:14:28.375Z,81.04
2023-02-13T23:17:19.703Z,81.06
2023-02-13T23:19:53.178Z,81.04
2023-02-13T23:22:26.274Z,80.99
2023-02-13T23:24:59.653Z,80.94
2023-02-13T23:27:36.225Z,80.86
2023-02-13T23:30:12.559Z,80.81
2023-02-13T23:32:46.057Z,80.79
2023-02-13T23:35:20.181Z,80.74
2023-02-13T23:37:53.673Z,80.49
2023-02-13T23:40:27.205Z,80.45
2023-02-13T23:43:00.609Z,80.54
2023-02-13T23:45:34.055Z,80.57
2023-02-13T23:48:09.874Z,80.56
2023-02-13T23:50:44.226Z,80.51
2023-02-13T23:53:17.769Z,80.48
2023-02-13T23:55:51.607Z,80.43
2023-02-13T23:58:24.944Z,80.30
